sensor_id;sensor_type;location;lat;lon;timestamp;pressure;altitude;pressure_sealevel;temperature;humidity
56689;BME280;42565;53.342;-1.534;2023-02-18T00:01:30;99088.15;;;9.78;92.25
56689;BME280;42565;53.342;-1.534;2023-02-18T00:03:58;99090.45;;;10.28;90.97
56689;BME280;42565;53.342;-1.534;2023-02-18T00:06:27;99101.54;;;10.19;88.58
56689;BME280;42565;53.342;-1.534;2023-02-18T00:08:55;99097.19;;;9.80;91.24
56689;BME280;42565;53.342;-1.534;2023-02-18T00:11:23;99104.19;;;9.82;91.14
56689;BME280;42565;53.342;-1.534;2023-02-18T00:13:51;99090.14;;;10.37;89.27
56689;BME280;42565;53.342;-1.534;2023-02-18T00:16:18;99082.51;;;10.90;86.93
56689;BME280;42565;53.342;-1.534;2023-02-18T00:18:46;99083.55;;;10.85;85.93
56689;BME280;42565;53.342;-1.534;2023-02-18T00:21:14;99077.10;;;10.31;88.04
56689;BME280;42565;53.342;-1.534;2023-02-18T00:23:41;99060.19;;;10.04;91.33
56689;BME280;42565;53.342;-1.534;2023-02-18T00:26:12;99053.30;;;10.42;89.99
56689;BME280;42565;53.342;-1.534;2023-02-18T00:28:40;99055.68;;;9.91;90.91
56689;BME280;42565;53.342;-1.534;2023-02-18T00:31:08;99061.97;;;9.83;93.02
56689;BME280;42565;53.342;-1.534;2023-02-18T00:33:36;99046.30;;;9.82;90.74
56689;BME280;42565;53.342;-1.534;2023-02-18T00:36:06;99054.05;;;9.67;90.72
56689;BME280;42565;53.342;-1.534;2023-02-18T00:38:33;99046.87;;;10.25;88.52
56689;BME280;42565;53.342;-1.534;2023-02-18T00:41:01;99051.21;;;10.60;87.16
56689;BME280;42565;53.342;-1.534;2023-02-18T00:43:29;99051.87;;;10.49;87.52
56689;BME280;42565;53.342;-1.534;2023-02-18T00:45:57;99058.86;;;9.90;89.66
56689;BME280;42565;53.342;-1.534;2023-02-18T00:48:24;99054.21;;;10.03;91.59
56689;BME280;42565;53.342;-1.534;2023-02-18T00:50:51;99063.51;;;9.96;89.43
56689;BME280;42565;53.342;-1.534;2023-02-18T00:53:18;99067.59;;;9.48;91.23
56689;BME280;42565;53.342;-1.534;2023-02-18T00:55:46;99057.22;;;9.84;89.79
56689;BME280;42565;53.342;-1.534;2023-02-18T00:58:14;99055.94;;;10.03;88.97
56689;BME280;42565;53.342;-1.534;2023-02-18T01:00:43;99059.14;;;10.09;90.38
56689;BME280;42565;53.342;-1.534;2023-02-18T01:03:11;99068.41;;;9.71;90.04
56689;BME280;42565;53.342;-1.534;2023-02-18T01:05:39;99053.71;;;9.94;89.23
56689;BME280;42565;53.342;-1.534;2023-02-18T01:08:08;99064.32;;;9.84;88.92
56689;BME280;42565;53.342;-1.534;2023-02-18T01:10:39;99061.82;;;10.42;86.89
56689;BME280;42565;53.342;-1.534;2023-02-18T01:13:07;99073.59;;;10.00;88.08
56689;BME280;42565;53.342;-1.534;2023-02-18T01:15:34;99070.53;;;9.58;89.43
56689;BME280;42565;53.342;-1.534;2023-02-18T01:18:02;99066.40;;;10.11;89.74
56689;BME280;42565;53.342;-1.534;2023-02-18T01:20:29;99061.64;;;9.73;90.03
56689;BME280;42565;53.342;-1.534;2023-02-18T01:22:57;99066.35;;;10.23;88.99
56689;BME280;42565;53.342;-1.534;2023-02-18T01:25:24;99052.99;;;9.81;88.88
56689;BME280;42565;53.342;-1.534;2023-02-18T01:27:51;99052.41;;;9.45;89.43
56689;BME280;42565;53.342;-1.534;2023-02-18T01:30:18;99055.00;;;10.19;88.46
56689;BME280;42565;53.342;-1.534;2023-02-18T01:32:45;99039.79;;;9.84;90.35
56689;BME280;42565;53.342;-1.534;2023-02-18T01:35:14;99027.50;;;9.62;89.49
56689;BME280;42565;53.342;-1.534;2023-02-18T01:37:42;99022.65;;;9.41;89.75
56689;BME280;42565;53.342;-1.534;2023-02-18T01:40:12;99003.07;;;10.11;89.58
56689;BME280;42565;53.342;-1.534;2023-02-18T01:42:40;99004.14;;;9.28;91.58
56689;BME280;42565;53.342;-1.534;2023-02-18T01:45:49;99000.34;;;9.26;92.94
56689;BME280;42565;53.342;-1.534;2023-02-18T01:48:19;98997.84;;;9.79;89.08
56689;BME280;42565;53.342;-1.534;2023-02-18T01:50:52;98980.92;;;9.95;87.56
56689;BME280;42565;53.342;-1.534;2023-02-18T01:53:25;98977.02;;;10.08;88.81
56689;BME280;42565;53.342;-1.534;2023-02-18T01:55:53;98983.44;;;9.47;88.97
56689;BME280;42565;53.342;-1.534;2023-02-18T01:58:20;98996.80;;;9.44;91.02
56689;BME280;42565;53.342;-1.534;2023-02-18T02:00:48;98994.27;;;9.68;90.45
56689;BME280;42565;53.342;-1.534;2023-02-18T02:03:14;98967.26;;;9.53;90.02
56689;BME280;42565;53.342;-1.534;2023-02-18T02:05:42;98946.69;;;9.92;88.92
56689;BME280;42565;53.342;-1.534;2023-02-18T02:08:09;98936.71;;;9.57;90.26
56689;BME280;42565;53.342;-1.534;2023-02-18T02:10:47;98941.32;;;8.88;95.06
56689;BME280;42565;53.342;-1.534;2023-02-18T02:13:24;98937.25;;;8.86;95.46
56689;BME280;42565;53.342;-1.534;2023-02-18T02:15:59;98939.18;;;9.15;93.76
56689;BME280;42565;53.342;-1.534;2023-02-18T02:18:39;98927.90;;;9.03;93.87
56689;BME280;42565;53.342;-1.534;2023-02-18T02:21:34;98917.46;;;8.31;95.55
56689;BME280;42565;53.342;-1.534;2023-02-18T02:24:23;98913.06;;;8.73;94.66
56689;BME280;42565;53.342;-1.534;2023-02-18T02:27:07;98902.30;;;8.63;93.62
56689;BME280;42565;53.342;-1.534;2023-02-18T02:30:19;98883.36;;;8.49;93.99
56689;BME280;42565;53.342;-1.534;2023-02-18T02:35:19;98891.13;;;8.34;97.31
56689;BME280;42565;53.342;-1.534;2023-02-18T02:37:52;98879.98;;;8.63;96.18
56689;BME280;42565;53.342;-1.534;2023-02-18T02:40:25;98866.64;;;8.99;93.28
56689;BME280;42565;53.342;-1.534;2023-02-18T02:43:05;98866.45;;;9.18;90.87
56689;BME280;42565;53.342;-1.534;2023-02-18T02:45:44;98876.48;;;8.85;91.76
56689;BME280;42565;53.342;-1.534;2023-02-18T02:48:23;98860.14;;;8.43;95.31
56689;BME280;42565;53.342;-1.534;2023-02-18T02:50:54;98874.61;;;8.08;96.11
56689;BME280;42565;53.342;-1.534;2023-02-18T02:53:26;98860.78;;;8.73;94.20
56689;BME280;42565;53.342;-1.534;2023-02-18T02:55:53;98857.94;;;8.50;94.79
56689;BME280;42565;53.342;-1.534;2023-02-18T02:58:21;98860.78;;;8.64;94.58
56689;BME280;42565;53.342;-1.534;2023-02-18T03:01:02;98845.22;;;8.66;93.14
56689;BME280;42565;53.342;-1.534;2023-02-18T03:03:48;98850.48;;;8.25;94.23
56689;BME280;42565;53.342;-1.534;2023-02-18T03:06:34;98841.65;;;8.82;92.38
56689;BME280;42565;53.342;-1.534;2023-02-18T03:09:11;98846.31;;;8.75;92.02
56689;BME280;42565;53.342;-1.534;2023-02-18T03:11:45;98839.03;;;8.50;93.30
56689;BME280;42565;53.342;-1.534;2023-02-18T03:14:23;98837.31;;;8.10;95.11
56689;BME280;42565;53.342;-1.534;2023-02-18T03:16:58;98830.22;;;8.34;93.99
56689;BME280;42565;53.342;-1.534;2023-02-18T03:19:31;98821.60;;;7.84;95.68
56689;BME280;42565;53.342;-1.534;2023-02-18T03:22:04;98820.25;;;8.57;93.32
56689;BME280;42565;53.342;-1.534;2023-02-18T03:24:34;98808.41;;;8.29;94.07
56689;BME280;42565;53.342;-1.534;2023-02-18T03:27:09;98803.03;;;8.22;94.01
56689;BME280;42565;53.342;-1.534;2023-02-18T03:29:39;98812.61;;;8.09;94.94
56689;BME280;42565;53.342;-1.534;2023-02-18T03:32:09;98794.23;;;8.07;96.53
56689;BME280;42565;53.342;-1.534;2023-02-18T03:34:42;98783.82;;;7.93;96.28
56689;BME280;42565;53.342;-1.534;2023-02-18T03:37:12;98794.40;;;8.21;95.62
56689;BME280;42565;53.342;-1.534;2023-02-18T03:39:45;98776.10;;;8.32;93.71
56689;BME280;42565;53.342;-1.534;2023-02-18T03:42:12;98781.08;;;8.43;93.46
56689;BME280;42565;53.342;-1.534;2023-02-18T03:44:39;98785.79;;;7.87;95.67
56689;BME280;42565;53.342;-1.534;2023-02-18T03:47:06;98784.40;;;7.78;96.44
56689;BME280;42565;53.342;-1.534;2023-02-18T03:49:32;98761.32;;;7.40;98.77
56689;BME280;42565;53.342;-1.534;2023-02-18T03:51:59;98764.07;;;7.64;97.48
56689;BME280;42565;53.342;-1.534;2023-02-18T03:54:26;98765.72;;;7.88;97.18
56689;BME280;42565;53.342;-1.534;2023-02-18T03:56:52;98759.90;;;7.25;99.64
56689;BME280;42565;53.342;-1.534;2023-02-18T03:59:19;98762.43;;;7.63;98.35
56689;BME280;42565;53.342;-1.534;2023-02-18T04:01:47;98748.19;;;7.84;98.52
56689;BME280;42565;53.342;-1.534;2023-02-18T04:04:14;98752.33;;;7.51;100.00
56689;BME280;42565;53.342;-1.534;2023-02-18T04:06:41;98753.78;;;7.49;100.00
56689;BME280;42565;53.342;-1.534;2023-02-18T04:09:08;98749.06;;;7.71;99.22
56689;BME280;42565;53.342;-1.534;2023-02-18T04:11:36;98744.57;;;7.84;97.62
56689;BME280;42565;53.342;-1.534;2023-02-18T04:14:04;98757.80;;;7.50;100.00
56689;BME280;42565;53.342;-1.534;2023-02-18T04:16:31;98742.26;;;7.58;100.00
56689;BME280;42565;53.342;-1.534;2023-02-18T04:18:59;98756.60;;;7.70;99.82
56689;BME280;42565;53.342;-1.534;2023-02-18T04:21:26;98742.55;;;7.76;99.76
56689;BME280;42565;53.342;-1.534;2023-02-18T04:23:53;98735.98;;;7.86;99.60
56689;BME280;42565;53.342;-1.534;2023-02-18T04:26:21;98744.89;;;7.50;100.00
56689;BME280;42565;53.342;-1.534;2023-02-18T04:28:48;98741.25;;;7.80;100.00
56689;BME280;42565;53.342;-1.534;2023-02-18T04:31:16;98754.74;;;7.51;100.00
56689;BME280;42565;53.342;-1.534;2023-02-18T04:33:43;98746.07;;;7.57;100.00
56689;BME280;42565;53.342;-1.534;2023-02-18T04:36:10;98736.66;;;7.71;100.00
56689;BME280;42565;53.342;-1.534;2023-02-18T04:38:37;98727.87;;;7.34;100.00
56689;BME280;42565;53.342;-1.534;2023-02-18T04:41:04;98731.28;;;7.72;100.00
56689;BME280;42565;53.342;-1.534;2023-02-18T04:43:31;98728.30;;;7.83;100.00
56689;BME280;42565;53.342;-1.534;2023-02-18T04:45:58;98748.05;;;8.14;100.00
56689;BME280;42565;53.342;-1.534;2023-02-18T04:48:24;98737.26;;;7.78;100.00
56689;BME280;42565;53.342;-1.534;2023-02-18T04:50:51;98746.51;;;7.73;100.00
56689;BME280;42565;53.342;-1.534;2023-02-18T04:53:18;98744.31;;;7.61;100.00
56689;BME280;42565;53.342;-1.534;2023-02-18T04:55:48;98738.61;;;7.54;100.00
56689;BME280;42565;53.342;-1.534;2023-02-18T04:58:15;98740.01;;;7.91;100.00
56689;BME280;42565;53.342;-1.534;2023-02-18T05:00:42;98739.46;;;7.54;100.00
56689;BME280;42565;53.342;-1.534;2023-02-18T05:03:10;98747.44;;;7.95;100.00
56689;BME280;42565;53.342;-1.534;2023-02-18T05:05:36;98747.60;;;7.93;100.00
56689;BME280;42565;53.342;-1.534;2023-02-18T05:08:04;98759.50;;;8.02;100.00
56689;BME280;42565;53.342;-1.534;2023-02-18T05:10:32;98745.24;;;7.92;100.00
56689;BME280;42565;53.342;-1.534;2023-02-18T05:12:59;98738.85;;;7.87;100.00
56689;BME280;42565;53.342;-1.534;2023-02-18T05:15:27;98751.44;;;8.31;100.00
56689;BME280;42565;53.342;-1.534;2023-02-18T05:17:54;98739.57;;;8.05;100.00
56689;BME280;42565;53.342;-1.534;2023-02-18T05:20:21;98751.11;;;8.23;100.00
56689;BME280;42565;53.342;-1.534;2023-02-18T05:22:48;98750.29;;;8.31;100.00
56689;BME280;42565;53.342;-1.534;2023-02-18T05:25:15;98746.10;;;8.41;100.00
56689;BME280;42565;53.342;-1.534;2023-02-18T05:27:43;98759.47;;;8.17;100.00
56689;BME280;42565;53.342;-1.534;2023-02-18T05:30:10;98749.60;;;8.44;100.00
56689;BME280;42565;53.342;-1.534;2023-02-18T05:32:37;98736.61;;;8.25;99.45
56689;BME280;42565;53.342;-1.534;2023-02-18T05:35:05;98721.38;;;8.05;100.00
56689;BME280;42565;53.342;-1.534;2023-02-18T05:37:33;98727.06;;;8.50;100.00
56689;BME280;42565;53.342;-1.534;2023-02-18T05:40:00;98718.95;;;7.94;100.00
56689;BME280;42565;53.342;-1.534;2023-02-18T05:42:26;98726.77;;;8.26;99.92
56689;BME280;42565;53.342;-1.534;2023-02-18T05:44:53;98727.32;;;8.19;99.06
56689;BME280;42565;53.342;-1.534;2023-02-18T05:47:20;98730.10;;;7.89;100.00
56689;BME280;42565;53.342;-1.534;2023-02-18T05:49:47;98730.33;;;8.16;99.93
56689;BME280;42565;53.342;-1.534;2023-02-18T05:52:14;98728.33;;;8.10;99.93
56689;BME280;42565;53.342;-1.534;2023-02-18T05:54:41;98727.35;;;8.57;97.32
56689;BME280;42565;53.342;-1.534;2023-02-18T05:57:07;98733.50;;;8.76;97.05
56689;BME280;42565;53.342;-1.534;2023-02-18T05:59:35;98731.23;;;8.29;99.02
56689;BME280;42565;53.342;-1.534;2023-02-18T06:02:02;98717.07;;;8.22;97.11
56689;BME280;42565;53.342;-1.534;2023-02-18T06:04:29;98716.14;;;8.38;98.30
56689;BME280;42565;53.342;-1.534;2023-02-18T06:06:56;98701.32;;;8.31;98.00
56689;BME280;42565;53.342;-1.534;2023-02-18T06:09:23;98689.13;;;8.25;97.74
56689;BME280;42565;53.342;-1.534;2023-02-18T06:11:50;98699.66;;;8.02;97.57
56689;BME280;42565;53.342;-1.534;2023-02-18T06:14:18;98717.65;;;7.98;97.01
56689;BME280;42565;53.342;-1.534;2023-02-18T06:16:45;98726.60;;;8.67;94.76
56689;BME280;42565;53.342;-1.534;2023-02-18T06:19:12;98717.45;;;8.09;95.69
56689;BME280;42565;53.342;-1.534;2023-02-18T06:21:39;98737.08;;;9.06;93.20
56689;BME280;42565;53.342;-1.534;2023-02-18T06:24:06;98744.10;;;8.53;95.89
56689;BME280;42565;53.342;-1.534;2023-02-18T06:26:33;98741.59;;;8.67;96.58
56689;BME280;42565;53.342;-1.534;2023-02-18T06:29:01;98733.23;;;8.75;95.70
56689;BME280;42565;53.342;-1.534;2023-02-18T06:31:27;98747.16;;;8.69;95.02
56689;BME280;42565;53.342;-1.534;2023-02-18T06:33:55;98755.68;;;8.48;97.15
56689;BME280;42565;53.342;-1.534;2023-02-18T06:36:23;98750.51;;;8.46;96.85
56689;BME280;42565;53.342;-1.534;2023-02-18T06:38:50;98742.95;;;8.77;95.80
56689;BME280;42565;53.342;-1.534;2023-02-18T06:41:17;98751.66;;;7.85;96.16
56689;BME280;42565;53.342;-1.534;2023-02-18T06:43:44;98765.62;;;8.57;97.51
56689;BME280;42565;53.342;-1.534;2023-02-18T06:46:11;98768.40;;;8.01;99.58
56689;BME280;42565;53.342;-1.534;2023-02-18T06:48:38;98751.06;;;8.08;99.38
56689;BME280;42565;53.342;-1.534;2023-02-18T06:51:05;98754.56;;;8.14;99.53
56689;BME280;42565;53.342;-1.534;2023-02-18T06:53:33;98768.95;;;8.47;97.38
56689;BME280;42565;53.342;-1.534;2023-02-18T06:56:00;98778.34;;;8.73;97.25
56689;BME280;42565;53.342;-1.534;2023-02-18T06:58:27;98780.82;;;8.21;97.23
56689;BME280;42565;53.342;-1.534;2023-02-18T07:00:54;98743.88;;;8.20;95.90
56689;BME280;42565;53.342;-1.534;2023-02-18T07:03:21;98766.93;;;8.26;95.14
56689;BME280;42565;53.342;-1.534;2023-02-18T07:05:48;98770.56;;;7.98;94.75
56689;BME280;42565;53.342;-1.534;2023-02-18T07:08:16;98781.88;;;8.16;92.19
56689;BME280;42565;53.342;-1.534;2023-02-18T07:10:43;98776.80;;;7.69;91.65
56689;BME280;42565;53.342;-1.534;2023-02-18T07:13:10;98773.90;;;7.75;91.26
56689;BME280;42565;53.342;-1.534;2023-02-18T07:15:36;98782.45;;;7.58;90.25
56689;BME280;42565;53.342;-1.534;2023-02-18T07:18:04;98786.16;;;7.87;88.89
56689;BME280;42565;53.342;-1.534;2023-02-18T07:20:31;98767.63;;;7.94;87.69
56689;BME280;42565;53.342;-1.534;2023-02-18T07:22:58;98771.86;;;7.94;87.45
56689;BME280;42565;53.342;-1.534;2023-02-18T07:25:25;98783.12;;;7.84;87.24
56689;BME280;42565;53.342;-1.534;2023-02-18T07:27:52;98758.30;;;7.95;86.57
56689;BME280;42565;53.342;-1.534;2023-02-18T07:30:20;98780.90;;;7.80;88.32
56689;BME280;42565;53.342;-1.534;2023-02-18T07:32:48;98779.15;;;7.67;87.82
56689;BME280;42565;53.342;-1.534;2023-02-18T07:35:15;98761.80;;;8.03;86.81
56689;BME280;42565;53.342;-1.534;2023-02-18T07:37:45;98774.19;;;7.81;87.68
56689;BME280;42565;53.342;-1.534;2023-02-18T07:40:14;98791.88;;;7.68;86.74
56689;BME280;42565;53.342;-1.534;2023-02-18T07:42:40;98787.53;;;7.85;86.74
56689;BME280;42565;53.342;-1.534;2023-02-18T07:45:09;98792.28;;;7.72;87.67
56689;BME280;42565;53.342;-1.534;2023-02-18T07:47:36;98778.13;;;7.81;87.00
56689;BME280;42565;53.342;-1.534;2023-02-18T07:50:02;98817.42;;;7.60;87.66
56689;BME280;42565;53.342;-1.534;2023-02-18T07:52:30;98794.16;;;7.84;85.62
56689;BME280;42565;53.342;-1.534;2023-02-18T07:54:57;98811.74;;;7.53;86.11
56689;BME280;42565;53.342;-1.534;2023-02-18T07:57:24;98797.90;;;7.97;84.55
56689;BME280;42565;53.342;-1.534;2023-02-18T07:59:51;98823.30;;;8.25;83.90
56689;BME280;42565;53.342;-1.534;2023-02-18T08:02:20;98812.90;;;8.21;82.63
56689;BME280;42565;53.342;-1.534;2023-02-18T08:04:48;98828.98;;;9.08;80.01
56689;BME280;42565;53.342;-1.534;2023-02-18T08:07:17;98826.53;;;9.63;78.25
56689;BME280;42565;53.342;-1.534;2023-02-18T08:09:46;98822.66;;;9.83;76.04
56689;BME280;42565;53.342;-1.534;2023-02-18T08:12:14;98823.80;;;9.75;73.90
56689;BME280;42565;53.342;-1.534;2023-02-18T08:14:40;98820.17;;;10.65;70.11
56689;BME280;42565;53.342;-1.534;2023-02-18T08:17:07;98829.18;;;11.86;65.90
56689;BME280;42565;53.342;-1.534;2023-02-18T08:19:35;98840.01;;;11.82;63.57
56689;BME280;42565;53.342;-1.534;2023-02-18T08:22:02;98856.53;;;12.17;61.98
56689;BME280;42565;53.342;-1.534;2023-02-18T08:24:29;98862.42;;;12.53;59.42
56689;BME280;42565;53.342;-1.534;2023-02-18T08:26:56;98865.93;;;12.19;61.78
56689;BME280;42565;53.342;-1.534;2023-02-18T08:29:24;98876.04;;;11.36;63.40
56689;BME280;42565;53.342;-1.534;2023-02-18T08:31:51;98896.22;;;11.03;66.53
56689;BME280;42565;53.342;-1.534;2023-02-18T08:34:18;98900.37;;;10.45;68.96
56689;BME280;42565;53.342;-1.534;2023-02-18T08:36:46;98906.82;;;10.65;69.18
56689;BME280;42565;53.342;-1.534;2023-02-18T08:39:13;98905.14;;;10.70;69.76
56689;BME280;42565;53.342;-1.534;2023-02-18T08:41:40;98905.24;;;10.07;71.47
56689;BME280;42565;53.342;-1.534;2023-02-18T08:44:07;98918.88;;;10.43;69.76
56689;BME280;42565;53.342;-1.534;2023-02-18T08:46:34;98919.39;;;10.37;69.93
56689;BME280;42565;53.342;-1.534;2023-02-18T08:49:02;98940.77;;;11.28;68.61
56689;BME280;42565;53.342;-1.534;2023-02-18T08:51:30;98945.84;;;11.08;68.07
56689;BME280;42565;53.342;-1.534;2023-02-18T08:53:58;98939.72;;;10.13;69.77
56689;BME280;42565;53.342;-1.534;2023-02-18T08:56:25;98970.34;;;10.63;67.92
56689;BME280;42565;53.342;-1.534;2023-02-18T08:58:52;98966.66;;;11.01;67.79
56689;BME280;42565;53.342;-1.534;2023-02-18T09:01:20;98974.81;;;11.28;65.88
56689;BME280;42565;53.342;-1.534;2023-02-18T09:03:47;98975.86;;;11.40;65.15
56689;BME280;42565;53.342;-1.534;2023-02-18T09:06:15;98994.84;;;11.01;64.73
56689;BME280;42565;53.342;-1.534;2023-02-18T09:08:43;99003.06;;;11.46;64.09
56689;BME280;42565;53.342;-1.534;2023-02-18T09:11:10;99021.17;;;12.04;62.78
56689;BME280;42565;53.342;-1.534;2023-02-18T09:13:38;99018.52;;;11.42;62.00
56689;BME280;42565;53.342;-1.534;2023-02-18T09:16:07;99023.44;;;11.60;61.25
56689;BME280;42565;53.342;-1.534;2023-02-18T09:18:36;99035.77;;;11.91;60.09
56689;BME280;42565;53.342;-1.534;2023-02-18T09:21:06;99042.34;;;12.06;59.65
56689;BME280;42565;53.342;-1.534;2023-02-18T09:23:34;99045.06;;;12.79;58.10
56689;BME280;42565;53.342;-1.534;2023-02-18T09:26:05;99049.23;;;12.70;58.04
56689;BME280;42565;53.342;-1.534;2023-02-18T09:28:32;99070.73;;;12.65;57.95
56689;BME280;42565;53.342;-1.534;2023-02-18T09:31:04;99077.69;;;12.57;58.19
56689;BME280;42565;53.342;-1.534;2023-02-18T09:33:34;99083.70;;;11.77;59.83
56689;BME280;42565;53.342;-1.534;2023-02-18T09:36:01;99081.62;;;11.65;61.39
56689;BME280;42565;53.342;-1.534;2023-02-18T09:38:28;99091.89;;;11.49;62.02
56689;BME280;42565;53.342;-1.534;2023-02-18T09:40:57;99093.49;;;12.10;60.96
56689;BME280;42565;53.342;-1.534;2023-02-18T09:43:29;99095.46;;;11.69;61.55
56689;BME280;42565;53.342;-1.534;2023-02-18T09:45:59;99097.33;;;11.57;63.76
56689;BME280;42565;53.342;-1.534;2023-02-18T09:48:28;99084.49;;;11.23;64.61
56689;BME280;42565;53.342;-1.534;2023-02-18T09:50:58;99090.02;;;11.39;63.91
56689;BME280;42565;53.342;-1.534;2023-02-18T09:53:25;99091.08;;;11.78;63.64
56689;BME280;42565;53.342;-1.534;2023-02-18T09:55:53;99081.92;;;11.78;63.89
56689;BME280;42565;53.342;-1.534;2023-02-18T09:58:25;99085.99;;;11.96;63.44
56689;BME280;42565;53.342;-1.534;2023-02-18T10:01:02;99075.04;;;11.45;63.70
56689;BME280;42565;53.342;-1.534;2023-02-18T10:03:30;99077.05;;;11.11;63.79
56689;BME280;42565;53.342;-1.534;2023-02-18T10:06:00;99078.45;;;11.06;64.23
56689;BME280;42565;53.342;-1.534;2023-02-18T10:08:31;99078.15;;;11.22;64.60
56689;BME280;42565;53.342;-1.534;2023-02-18T10:11:00;99084.26;;;11.16;65.33
56689;BME280;42565;53.342;-1.534;2023-02-18T10:13:30;99080.27;;;11.14;65.78
56689;BME280;42565;53.342;-1.534;2023-02-18T10:15:58;99075.17;;;11.21;64.57
56689;BME280;42565;53.342;-1.534;2023-02-18T10:18:27;99081.27;;;11.56;63.04
56689;BME280;42565;53.342;-1.534;2023-02-18T10:21:02;99070.46;;;11.83;62.61
56689;BME280;42565;53.342;-1.534;2023-02-18T10:23:33;99072.69;;;11.64;63.68
56689;BME280;42565;53.342;-1.534;2023-02-18T10:26:03;99073.32;;;11.27;65.36
56689;BME280;42565;53.342;-1.534;2023-02-18T10:28:32;99076.13;;;11.23;65.79
56689;BME280;42565;53.342;-1.534;2023-02-18T10:31:04;99071.05;;;11.23;64.99
56689;BME280;42565;53.342;-1.534;2023-02-18T10:33:35;99078.43;;;11.12;66.35
56689;BME280;42565;53.342;-1.534;2023-02-18T10:36:14;99074.55;;;10.99;65.88
56689;BME280;42565;53.342;-1.534;2023-02-18T10:38:59;99062.74;;;11.22;66.28
56689;BME280;42565;53.342;-1.534;2023-02-18T10:41:33;99073.05;;;12.21;64.76
56689;BME280;42565;53.342;-1.534;2023-02-18T10:44:09;99069.05;;;11.20;66.29
56689;BME280;42565;53.342;-1.534;2023-02-18T10:46:47;99072.76;;;11.02;67.69
56689;BME280;42565;53.342;-1.534;2023-02-18T10:49:33;99083.93;;;11.27;66.55
56689;BME280;42565;53.342;-1.534;2023-02-18T10:52:08;99087.36;;;10.87;67.03
56689;BME280;42565;53.342;-1.534;2023-02-18T10:54:59;99091.50;;;10.42;68.96
56689;BME280;42565;53.342;-1.534;2023-02-18T10:57:26;99088.28;;;10.72;68.62
56689;BME280;42565;53.342;-1.534;2023-02-18T10:59:56;99081.37;;;10.99;68.88
56689;BME280;42565;53.342;-1.534;2023-02-18T11:02:27;99089.76;;;11.18;67.16
56689;BME280;42565;53.342;-1.534;2023-02-18T11:04:57;99096.18;;;11.40;67.44
56689;BME280;42565;53.342;-1.534;2023-02-18T11:07:29;99090.26;;;10.98;67.19
56689;BME280;42565;53.342;-1.534;2023-02-18T11:09:59;99095.41;;;11.31;67.11
56689;BME280;42565;53.342;-1.534;2023-02-18T11:12:31;99079.58;;;11.13;66.21
56689;BME280;42565;53.342;-1.534;2023-02-18T11:15:14;99091.23;;;10.92;67.06
56689;BME280;42565;53.342;-1.534;2023-02-18T11:17:44;99090.90;;;10.76;67.83
56689;BME280;42565;53.342;-1.534;2023-02-18T11:20:30;99087.83;;;11.58;66.89
56689;BME280;42565;53.342;-1.534;2023-02-18T11:23:14;99093.17;;;11.39;66.94
56689;BME280;42565;53.342;-1.534;2023-02-18T11:25:54;99095.80;;;11.19;65.59
56689;BME280;42565;53.342;-1.534;2023-02-18T11:28:30;99090.02;;;10.89;67.38
56689;BME280;42565;53.342;-1.534;2023-02-18T11:30:59;99074.11;;;11.25;66.88
56689;BME280;42565;53.342;-1.534;2023-02-18T11:33:33;99072.81;;;11.52;66.17
56689;BME280;42565;53.342;-1.534;2023-02-18T11:36:04;99072.43;;;11.72;64.97
56689;BME280;42565;53.342;-1.534;2023-02-18T11:38:37;99075.97;;;11.55;65.06
56689;BME280;42565;53.342;-1.534;2023-02-18T11:41:10;99075.90;;;11.92;64.58
56689;BME280;42565;53.342;-1.534;2023-02-18T11:43:41;99076.70;;;11.81;65.25
56689;BME280;42565;53.342;-1.534;2023-02-18T11:46:11;99083.38;;;11.88;64.42
56689;BME280;42565;53.342;-1.534;2023-02-18T11:48:39;99069.54;;;11.29;66.78
56689;BME280;42565;53.342;-1.534;2023-02-18T11:51:15;99060.70;;;11.50;67.31
56689;BME280;42565;53.342;-1.534;2023-02-18T11:53:56;99069.46;;;11.15;67.28
56689;BME280;42565;53.342;-1.534;2023-02-18T11:56:24;99069.10;;;11.39;66.68
56689;BME280;42565;53.342;-1.534;2023-02-18T11:58:51;99067.13;;;11.33;67.45
56689;BME280;42565;53.342;-1.534;2023-02-18T12:01:42;99083.20;;;11.47;67.07
56689;BME280;42565;53.342;-1.534;2023-02-18T12:04:13;99079.02;;;11.62;67.36
56689;BME280;42565;53.342;-1.534;2023-02-18T12:06:48;99073.66;;;11.35;66.97
56689;BME280;42565;53.342;-1.534;2023-02-18T12:09:22;99080.38;;;10.97;68.15
56689;BME280;42565;53.342;-1.534;2023-02-18T12:11:54;99074.57;;;10.65;69.78
56689;BME280;42565;53.342;-1.534;2023-02-18T12:14:24;99076.74;;;10.42;69.80
56689;BME280;42565;53.342;-1.534;2023-02-18T12:17:13;99073.36;;;11.22;68.57
56689;BME280;42565;53.342;-1.534;2023-02-18T12:19:54;99072.21;;;11.20;68.04
56689;BME280;42565;53.342;-1.534;2023-02-18T12:22:37;99074.62;;;11.07;67.76
56689;BME280;42565;53.342;-1.534;2023-02-18T12:25:21;99068.32;;;11.13;68.27
56689;BME280;42565;53.342;-1.534;2023-02-18T12:28:01;99076.00;;;11.30;67.34
56689;BME280;42565;53.342;-1.534;2023-02-18T12:30:50;99086.84;;;11.99;66.36
56689;BME280;42565;53.342;-1.534;2023-02-18T12:33:28;99091.80;;;11.92;65.86
56689;BME280;42565;53.342;-1.534;2023-02-18T12:36:09;99111.35;;;12.64;63.17
56689;BME280;42565;53.342;-1.534;2023-02-18T12:38:54;99101.56;;;13.07;62.04
56689;BME280;42565;53.342;-1.534;2023-02-18T12:41:34;99114.92;;;13.70;60.40
56689;BME280;42565;53.342;-1.534;2023-02-18T12:44:12;99112.72;;;13.70;60.97
56689;BME280;42565;53.342;-1.534;2023-02-18T12:46:57;99119.92;;;13.90;60.42
56689;BME280;42565;53.342;-1.534;2023-02-18T12:50:14;99116.71;;;12.64;59.62
56689;BME280;42565;53.342;-1.534;2023-02-18T12:52:56;99120.07;;;12.83;60.58
56689;BME280;42565;53.342;-1.534;2023-02-18T12:55:33;99123.93;;;12.40;61.06
56689;BME280;42565;53.342;-1.534;2023-02-18T12:58:12;99123.85;;;12.75;59.68
56689;BME280;42565;53.342;-1.534;2023-02-18T13:00:53;99127.10;;;12.80;60.67
56689;BME280;42565;53.342;-1.534;2023-02-18T13:03:46;99124.06;;;12.62;60.39
56689;BME280;42565;53.342;-1.534;2023-02-18T13:06:30;99136.19;;;12.70;59.65
56689;BME280;42565;53.342;-1.534;2023-02-18T13:09:08;99134.81;;;12.56;60.62
56689;BME280;42565;53.342;-1.534;2023-02-18T13:11:50;99139.43;;;12.99;60.04
56689;BME280;42565;53.342;-1.534;2023-02-18T13:14:27;99135.17;;;13.52;59.45
56689;BME280;42565;53.342;-1.534;2023-02-18T13:17:03;99132.46;;;13.20;59.20